createdAt,value
2017-07-15T00:01:30.042Z,98.20
2017-07-15T00:03:57.786Z,98.20
2017-07-15T00:06:25.233Z,98.20
2017-07-15T00:08:52.703Z,98.20
2017-07-15T00:11:20.175Z,98.20
2017-07-15T00:13:48.021Z,98.20
2017-07-15T00:16:15.480Z,98.20
2017-07-15T00:18:43.353Z,98.20
2017-07-15T00:21:10.813Z,98.20
2017-07-15T00:23:38.265Z,98.20
2017-07-15T00:26:06.022Z,98.20
2017-07-15T00:28:33.479Z,98.20
2017-07-15T00:31:00.938Z,98.20
2017-07-15T00:33:28.422Z,98.20
2017-07-15T00:35:55.878Z,98.20
2017-07-15T00:38:23.408Z,98.20
2017-07-15T00:40:51.305Z,98.20
2017-07-15T00:43:18.770Z,98.20
2017-07-15T00:45:46.231Z,98.20
2017-07-15T00:48:13.703Z,98.20
2017-07-15T00:50:41.450Z,98.20
2017-07-15T00:53:08.904Z,98.20
2017-07-15T00:55:36.700Z,98.20
2017-07-15T00:58:04.153Z,98.20
2017-07-15T01:00:31.596Z,98.20
2017-07-15T01:02:59.155Z,98.20
2017-07-15T01:05:26.610Z,98.20
2017-07-15T01:07:54.053Z,98.20
2017-07-15T01:10:21.516Z,98.20
2017-07-15T01:12:48.969Z,98.20
2017-07-15T01:15:16.412Z,98.20
2017-07-15T01:17:43.883Z,98.20
2017-07-15T01:20:11.324Z,98.20
2017-07-15T01:22:38.766Z,98.20
2017-07-15T01:25:07.284Z,98.20
2017-07-15T01:27:34.733Z,98.20
2017-07-15T01:30:02.170Z,98.20
2017-07-15T01:32:29.623Z,98.20
2017-07-15T01:34:57.075Z,98.20
2017-07-15T01:37:24.525Z,98.20
2017-07-15T01:39:51.991Z,98.20
2017-07-15T01:42:19.441Z,98.20
2017-07-15T01:44:46.889Z,98.20
2017-07-15T01:47:14.448Z,98.20
2017-07-15T01:49:41.890Z,98.20
2017-07-15T01:52:09.328Z,98.20
2017-07-15T01:54:37.196Z,98.20
2017-07-15T01:57:05.037Z,98.20
2017-07-15T01:59:32.480Z,98.20
2017-07-15T02:01:59.940Z,98.20
2017-07-15T02:04:27.379Z,98.20
2017-07-15T02:06:54.824Z,98.20
2017-07-15T02:09:22.382Z,98.20
2017-07-15T02:11:49.832Z,98.20
2017-07-15T02:14:17.275Z,98.20
2017-07-15T02:16:44.849Z,98.20
2017-07-15T02:19:12.288Z,98.20
2017-07-15T02:21:39.742Z,98.20
2017-07-15T02:24:07.207Z,98.20
2017-07-15T02:26:34.642Z,98.20
2017-07-15T02:29:02.083Z,98.20
2017-07-15T02:31:29.555Z,98.20
2017-07-15T02:33:57.004Z,98.20
2017-07-15T02:36:24.456Z,98.20
2017-07-15T02:38:51.925Z,98.20
2017-07-15T02:41:19.764Z,98.20
2017-07-15T02:43:47.600Z,98.20
2017-07-15T02:46:15.240Z,98.20
2017-07-15T02:48:42.680Z,98.20
2017-07-15T02:51:10.136Z,98.20
2017-07-15T02:53:37.893Z,98.20
2017-07-15T02:56:05.348Z,98.20
2017-07-15T02:58:32.799Z,98.20
2017-07-15T03:01:00.271Z,98.20
2017-07-15T03:03:27.721Z,98.20
2017-07-15T03:05:55.170Z,98.20
2017-07-15T03:08:22.631Z,98.20
2017-07-15T03:10:50.384Z,98.20
2017-07-15T03:13:17.833Z,98.20
2017-07-15T03:15:45.303Z,98.20
2017-07-15T03:18:12.750Z,98.20
2017-07-15T03:20:40.198Z,98.20
2017-07-15T03:23:07.747Z,98.20
2017-07-15T03:25:35.199Z,98.20
2017-07-15T03:28:02.640Z,98.20
2017-07-15T03:30:30.500Z,98.20
2017-07-15T03:32:58.336Z,98.20
2017-07-15T03:35:25.780Z,98.20
2017-07-15T03:37:53.243Z,98.20
2017-07-15T03:40:20.688Z,98.20
2017-07-15T03:42:48.128Z,98.20
2017-07-15T03:45:15.799Z,98.20
2017-07-15T03:47:43.243Z,98.20
2017-07-15T03:50:10.682Z,98.20
2017-07-15T03:52:38.151Z,98.20
2017-07-15T03:55:05.593Z,98.20
2017-07-15T03:57:33.040Z,98.20
2017-07-15T04:00:00.759Z,98.20
2017-07-15T04:02:28.196Z,98.20
2017-07-15T04:04:55.640Z,98.20
2017-07-15T04:07:23.308Z,98.20
2017-07-15T04:09:50.747Z,98.20
2017-07-15T04:12:18.197Z,98.20
2017-07-15T04:14:45.660Z,98.20
2017-07-15T04:17:13.123Z,98.20
2017-07-15T04:19:40.565Z,98.20
2017-07-15T04:22:08.244Z,98.20
2017-07-15T04:24:35.688Z,98.20
2017-07-15T04:27:03.131Z,98.20
2017-07-15T04:29:30.814Z,98.20
2017-07-15T04:31:58.261Z,98.20
2017-07-15T04:34:25.715Z,98.20
2017-07-15T04:36:53.168Z,98.20
2017-07-15T04:39:20.612Z,98.20
2017-07-15T04:41:48.055Z,98.20
2017-07-15T04:44:15.703Z,98.20
2017-07-15T04:46:43.147Z,98.20
2017-07-15T04:49:11.002Z,98.20
2017-07-15T04:51:38.866Z,98.20
2017-07-15T04:54:06.316Z,98.20
2017-07-15T04:56:34.155Z,98.20
2017-07-15T04:59:01.633Z,98.20
2017-07-15T05:01:29.068Z,98.20
2017-07-15T05:03:56.518Z,98.20
2017-07-15T05:06:24.184Z,98.20
2017-07-15T05:08:51.631Z,98.20
2017-07-15T05:11:19.080Z,98.20
2017-07-15T05:13:46.641Z,98.20
2017-07-15T05:16:14.090Z,98.20
2017-07-15T05:18:41.536Z,98.20
2017-07-15T05:21:09.216Z,98.20
2017-07-15T05:23:36.667Z,98.20
2017-07-15T05:26:04.120Z,98.20
2017-07-15T05:28:31.824Z,98.20
2017-07-15T05:30:59.667Z,98.20
2017-07-15T05:33:27.112Z,98.20
2017-07-15T05:35:55.106Z,98.20
2017-07-15T05:38:22.552Z,98.20
2017-07-15T05:40:49.998Z,98.20
2017-07-15T05:43:17.465Z,98.20
2017-07-15T05:45:45.309Z,98.20
2017-07-15T05:48:12.756Z,98.20
2017-07-15T05:50:40.233Z,98.20
2017-07-15T05:53:07.689Z,98.20
2017-07-15T05:55:35.131Z,98.20
2017-07-15T05:58:02.844Z,98.20
2017-07-15T06:00:30.284Z,98.20
2017-07-15T06:02:58.143Z,98.20
2017-07-15T06:05:25.994Z,98.20
2017-07-15T06:07:53.431Z,98.20
2017-07-15T06:10:20.876Z,98.20
2017-07-15T06:12:48.352Z,98.20
2017-07-15T06:15:15.801Z,98.20
2017-07-15T06:17:43.249Z,98.20
2017-07-15T06:20:10.882Z,98.20
2017-07-15T06:22:38.332Z,98.20
2017-07-15T06:25:05.769Z,98.20
2017-07-15T06:27:33.576Z,98.20
2017-07-15T06:30:01.020Z,98.20
2017-07-15T06:32:28.467Z,98.20
2017-07-15T06:34:56.419Z,98.20
2017-07-15T06:37:23.892Z,98.20
2017-07-15T06:39:51.345Z,98.20
2017-07-15T06:42:19.128Z,98.20
2017-07-15T06:44:46.580Z,98.20
2017-07-15T06:47:14.032Z,98.20
2017-07-15T06:49:41.496Z,98.20
2017-07-15T06:52:08.945Z,98.20
2017-07-15T06:54:36.393Z,98.20
2017-07-15T06:57:04.169Z,98.20
2017-07-15T06:59:31.621Z,98.20
2017-07-15T07:01:59.079Z,98.20
2017-07-15T07:04:26.555Z,98.20
2017-07-15T07:06:54.400Z,98.20
2017-07-15T07:09:21.850Z,98.20
2017-07-15T07:11:50.327Z,98.20
2017-07-15T07:14:17.773Z,98.20
2017-07-15T07:16:45.230Z,98.20
2017-07-15T07:19:13.017Z,98.20
2017-07-15T07:21:40.470Z,98.20
2017-07-15T07:24:07.920Z,98.20
2017-07-15T07:26:35.687Z,98.20
2017-07-15T07:29:03.136Z,98.20
2017-07-15T07:31:31.542Z,98.20
2017-07-15T07:33:59.483Z,98.20
2017-07-15T07:36:26.929Z,98.20
2017-07-15T07:38:54.392Z,98.20
2017-07-15T07:41:22.006Z,98.20
2017-07-15T07:43:49.440Z,98.20
2017-07-15T07:46:16.893Z,98.20
2017-07-15T07:48:44.838Z,98.20
2017-07-15T07:51:12.294Z,98.20
2017-07-15T07:53:39.736Z,98.20
2017-07-15T07:56:07.218Z,98.20
2017-07-15T07:58:35.059Z,98.20
2017-07-15T08:01:02.511Z,98.20
2017-07-15T08:03:29.991Z,98.20
2017-07-15T08:05:57.848Z,98.20
2017-07-15T08:08:25.307Z,98.20
2017-07-15T08:10:54.105Z,98.20
2017-07-15T08:13:21.637Z,98.20
2017-07-15T08:15:49.086Z,98.20
2017-07-15T08:18:16.562Z,98.20
2017-07-15T08:20:44.422Z,98.20
2017-07-15T08:23:13.867Z,98.20
2017-07-15T08:25:41.677Z,98.20
2017-07-15T08:28:09.142Z,98.20
2017-07-15T08:30:36.583Z,98.20
2017-07-15T08:33:04.342Z,98.20
2017-07-15T08:35:32.990Z,98.20
2017-07-15T08:38:01.346Z,98.20
2017-07-15T08:40:29.074Z,98.20
2017-07-15T08:42:56.534Z,98.20
2017-07-15T08:45:23.996Z,98.20
2017-07-15T08:47:52.151Z,98.20
2017-07-15T08:50:19.615Z,98.20
2017-07-15T08:52:48.092Z,98.20
2017-07-15T08:55:16.039Z,98.20
2017-07-15T08:57:43.506Z,98.20
2017-07-15T09:00:11.013Z,98.20
2017-07-15T09:02:38.578Z,98.20
2017-07-15T09:05:06.034Z,98.20
2017-07-15T09:07:33.670Z,98.20
2017-07-15T09:10:01.485Z,98.20
2017-07-15T09:12:29.483Z,98.20
2017-07-15T09:14:57.329Z,98.20
2017-07-15T09:17:25.199Z,98.20
2017-07-15T09:19:53.075Z,98.20
2017-07-15T09:22:20.525Z,98.20
2017-07-15T09:24:48.377Z,98.20
2017-07-15T09:27:15.945Z,98.20
2017-07-15T09:29:43.813Z,98.20
2017-07-15T09:32:11.262Z,98.20
2017-07-15T09:34:39.793Z,98.20
2017-07-15T09:37:07.618Z,98.20
2017-07-15T09:39:35.065Z,98.20
2017-07-15T09:42:02.542Z,98.20
2017-07-15T09:44:29.994Z,98.20
2017-07-15T09:46:57.685Z,98.20
2017-07-15T09:49:25.417Z,98.20
2017-07-15T09:51:52.883Z,98.20
2017-07-15T09:54:20.335Z,98.20
2017-07-15T09:56:47.826Z,98.20
2017-07-15T11:24:12.953Z,90.50
2017-07-15T11:26:40.415Z,90.40
2017-07-15T11:29:08.179Z,92.30
2017-07-15T11:31:35.653Z,94.40
2017-07-15T11:34:03.508Z,95.00
2017-07-15T11:36:31.256Z,95.00
2017-07-15T11:38:59.112Z,91.80
2017-07-15T11:41:26.574Z,91.80
2017-07-15T11:43:54.039Z,91.40
2017-07-15T11:46:22.404Z,94.90
2017-07-15T11:48:49.855Z,94.90
2017-07-15T11:51:17.509Z,95.40
2017-07-15T11:53:44.972Z,94.20
2017-07-15T11:56:12.459Z,92.30
2017-07-15T11:58:40.333Z,90.90
2017-07-15T12:01:07.789Z,90.90
2017-07-15T12:03:35.247Z,89.80
2017-07-15T12:06:03.064Z,86.40
2017-07-15T12:08:30.525Z,84.40
2017-07-15T12:10:57.980Z,85.20
2017-07-15T12:13:25.468Z,85.20
2017-07-15T12:15:52.938Z,83.40
2017-07-15T12:18:20.392Z,84.10
2017-07-15T12:20:47.906Z,84.20
2017-07-15T12:23:16.157Z,79.60
2017-07-15T12:25:43.817Z,81.40
2017-07-15T12:28:12.417Z,80.70
2017-07-15T12:30:39.874Z,79.20
2017-07-15T12:33:07.358Z,78.50
2017-07-15T12:35:34.808Z,76.60
2017-07-15T12:38:02.274Z,75.70
2017-07-15T12:40:29.756Z,76.70
2017-07-15T12:42:57.205Z,80.20
2017-07-15T12:45:27.245Z,82.20
2017-07-15T12:47:55.027Z,84.60
2017-07-15T12:50:22.486Z,86.60
2017-07-15T12:52:50.374Z,90.00
2017-07-15T12:55:17.829Z,90.00
2017-07-15T12:57:45.295Z,90.80
2017-07-15T13:00:14.861Z,91.10
2017-07-15T13:02:42.322Z,91.50
2017-07-15T13:05:09.782Z,90.50
2017-07-15T13:07:37.534Z,90.20
2017-07-15T13:10:05.089Z,89.80
2017-07-15T13:12:32.535Z,89.00
2017-07-15T13:15:00.042Z,88.70
2017-07-15T13:17:27.510Z,88.30
2017-07-15T13:19:54.958Z,87.00
2017-07-15T13:22:22.434Z,86.20
2017-07-15T13:24:49.977Z,86.60
2017-07-15T13:27:17.483Z,87.40
2017-07-15T13:29:44.948Z,79.50
2017-07-15T13:32:12.733Z,74.90
2017-07-15T13:34:40.182Z,79.20
2017-07-15T13:37:08.071Z,77.80
2017-07-15T13:39:35.518Z,77.80
2017-07-15T13:42:02.963Z,81.30
2017-07-15T13:44:30.781Z,83.70
2017-07-15T13:46:58.241Z,85.10
2017-07-15T13:49:25.977Z,86.40
2017-07-15T13:51:54.272Z,87.90
2017-07-15T13:54:21.734Z,88.40
2017-07-15T13:56:49.744Z,89.20
2017-07-15T13:59:17.687Z,88.20
2017-07-15T14:01:45.129Z,87.50
2017-07-15T14:04:12.583Z,86.70
2017-07-15T14:06:40.618Z,86.30
2017-07-15T14:09:08.088Z,85.10
2017-07-15T14:11:35.831Z,82.90
2017-07-15T14:14:03.388Z,76.50
2017-07-15T14:16:31.253Z,80.80
2017-07-15T14:18:58.733Z,83.00
2017-07-15T14:21:26.217Z,83.40
2017-07-15T14:23:54.071Z,85.80
2017-07-15T14:26:21.530Z,85.80
2017-07-15T14:28:49.392Z,86.00
2017-07-15T14:31:17.961Z,86.00
2017-07-15T14:33:45.414Z,86.20
2017-07-15T14:36:13.183Z,86.40
2017-07-15T14:38:40.625Z,86.70
2017-07-15T14:41:08.313Z,86.00
2017-07-15T14:43:36.470Z,86.40
2017-07-15T14:46:04.930Z,86.40
2017-07-15T14:48:32.390Z,85.90
2017-07-15T14:51:00.182Z,85.40
2017-07-15T14:53:28.038Z,84.80
2017-07-15T14:55:57.409Z,84.90
2017-07-15T14:58:26.000Z,84.30
2017-07-15T15:00:53.462Z,84.70
2017-07-15T15:03:21.193Z,84.90
2017-07-15T15:05:48.899Z,83.80
2017-07-15T15:08:16.775Z,82.70
2017-07-15T15:10:44.257Z,82.70
2017-07-15T15:13:11.731Z,80.50
2017-07-15T15:15:39.197Z,80.00
2017-07-15T15:18:06.653Z,79.80
2017-07-15T15:20:34.370Z,79.60
2017-07-15T15:23:02.470Z,79.60
2017-07-15T15:25:30.796Z,79.60
2017-07-15T15:27:58.372Z,80.30
2017-07-15T15:30:25.831Z,80.50
2017-07-15T15:32:54.416Z,81.50
2017-07-15T15:35:22.291Z,82.20
2017-07-15T15:37:49.741Z,82.20
2017-07-15T15:40:17.205Z,82.50
2017-07-15T15:42:44.925Z,82.60
2017-07-15T15:45:12.368Z,83.00
2017-07-15T15:47:39.805Z,83.70
2017-07-15T15:50:07.365Z,83.40
2017-07-15T15:52:34.824Z,84.40
2017-07-15T15:55:02.276Z,83.60
2017-07-15T15:57:30.323Z,83.40
2017-07-15T15:59:57.794Z,82.80
2017-07-15T16:02:25.247Z,81.80
2017-07-15T16:04:53.114Z,81.00
2017-07-15T16:07:20.578Z,80.90
2017-07-15T16:09:48.024Z,80.00
2017-07-15T16:12:15.888Z,79.60
2017-07-15T16:14:44.329Z,80.10
2017-07-15T16:17:11.787Z,80.40
2017-07-15T16:19:39.264Z,80.20
2017-07-15T16:22:09.733Z,80.70
2017-07-15T16:24:37.464Z,80.50
2017-07-15T16:27:04.937Z,79.40
2017-07-15T16:29:32.399Z,79.20
2017-07-15T16:31:59.846Z,79.10
2017-07-15T16:34:27.322Z,79.20
2017-07-15T16:36:54.771Z,79.40
2017-07-15T16:39:22.234Z,79.30
2017-07-15T16:41:50.150Z,79.10
2017-07-15T16:44:17.612Z,80.00
2017-07-15T16:46:45.071Z,80.00
2017-07-15T16:49:12.647Z,79.80
2017-07-15T16:51:40.095Z,80.20
2017-07-15T16:54:07.555Z,80.50
2017-07-15T16:56:35.047Z,80.10
2017-07-15T16:59:02.907Z,81.30
2017-07-15T17:01:30.362Z,81.30
2017-07-15T17:03:58.483Z,80.60
2017-07-15T17:06:25.931Z,80.60
2017-07-15T17:08:53.391Z,80.20
2017-07-15T17:11:20.861Z,80.40
2017-07-15T17:13:48.819Z,81.20
2017-07-15T17:16:16.288Z,82.00
2017-07-15T17:18:43.760Z,82.60
2017-07-15T17:21:11.202Z,83.00
2017-07-15T17:23:38.666Z,84.10
2017-07-15T17:26:07.682Z,84.50
2017-07-15T17:28:35.131Z,84.20
2017-07-15T17:31:04.751Z,84.40
2017-07-15T17:33:32.263Z,84.50
2017-07-15T17:35:59.738Z,85.10
2017-07-15T17:38:27.282Z,85.50
2017-07-15T17:40:55.173Z,86.20
2017-07-15T17:43:22.629Z,86.20
2017-07-15T17:45:50.390Z,86.60
2017-07-15T17:48:18.543Z,86.50
2017-07-15T17:50:46.000Z,86.50
2017-07-15T17:53:13.887Z,86.00
2017-07-15T17:55:41.389Z,86.00
2017-07-15T17:58:08.846Z,85.70
2017-07-15T18:00:36.329Z,84.40
2017-07-15T18:03:04.097Z,83.60
2017-07-15T18:05:31.561Z,83.70
2017-07-15T18:07:59.474Z,84.60
2017-07-15T18:10:27.058Z,84.60
2017-07-15T18:12:55.132Z,84.50
2017-07-15T18:15:22.583Z,84.90
2017-07-15T18:17:50.393Z,85.40
2017-07-15T18:20:17.837Z,85.70
2017-07-15T18:22:45.626Z,86.00
2017-07-15T18:25:13.694Z,86.30
2017-07-15T18:27:41.674Z,87.00
2017-07-15T18:30:09.138Z,87.00
2017-07-15T18:32:36.714Z,87.80
2017-07-15T18:35:04.163Z,87.70
2017-07-15T18:37:31.620Z,88.00
2017-07-15T18:39:59.125Z,88.40
2017-07-15T18:42:26.556Z,88.50
2017-07-15T18:44:55.053Z,89.20
2017-07-15T18:47:22.525Z,89.30
2017-07-15T18:49:49.975Z,89.40
2017-07-15T18:52:17.412Z,89.70
2017-07-15T18:54:45.153Z,90.30
2017-07-15T18:57:12.928Z,90.40
2017-07-15T18:59:40.384Z,90.70
2017-07-15T19:02:08.281Z,91.40
2017-07-15T19:04:35.759Z,91.50
2017-07-15T19:07:03.750Z,91.80
2017-07-15T19:09:31.220Z,92.00
2017-07-15T19:11:58.672Z,92.00
2017-07-15T19:14:26.543Z,92.90
2017-07-15T19:16:54.190Z,92.90
2017-07-15T19:19:21.660Z,93.60
2017-07-15T19:21:49.120Z,93.60
2017-07-15T19:24:16.969Z,93.80
2017-07-15T19:26:45.380Z,93.80
2017-07-15T19:29:12.831Z,94.10
2017-07-15T19:31:40.314Z,94.30
2017-07-15T19:34:07.817Z,94.40
2017-07-15T19:36:35.634Z,94.00
2017-07-15T19:39:03.692Z,94.50
2017-07-15T19:41:31.405Z,94.70
2017-07-15T19:43:58.876Z,95.00
2017-07-15T19:46:26.731Z,95.50
2017-07-15T19:48:56.116Z,95.50
2017-07-15T19:51:23.661Z,95.60
2017-07-15T19:53:51.108Z,96.20
2017-07-15T19:56:18.597Z,96.30
2017-07-15T19:58:46.262Z,96.40
2017-07-15T20:01:14.113Z,96.30
2017-07-15T20:03:41.951Z,96.30
2017-07-15T20:06:09.446Z,96.80
2017-07-15T20:08:36.906Z,96.70
2017-07-15T20:11:04.381Z,96.20
2017-07-15T20:13:32.039Z,96.70
2017-07-15T20:15:59.491Z,97.00
2017-07-15T20:18:26.965Z,96.70
2017-07-15T20:20:54.485Z,97.00
2017-07-15T20:23:22.207Z,97.50
2017-07-15T20:25:49.660Z,97.70
2017-07-15T20:28:17.340Z,98.20
2017-07-15T20:30:44.783Z,98.20
2017-07-15T20:33:12.241Z,98.20
2017-07-15T20:35:39.733Z,98.20
2017-07-15T20:38:07.584Z,98.20
2017-07-15T20:40:35.063Z,98.20
2017-07-15T20:43:04.283Z,98.20
2017-07-15T20:45:31.729Z,98.20
2017-07-15T20:47:59.193Z,98.20
2017-07-15T20:50:27.988Z,98.20
2017-07-15T20:53:14.174Z,98.20
2017-07-15T20:55:42.578Z,98.20
2017-07-15T20:58:10.532Z,98.20
2017-07-15T21:00:38.238Z,98.20
2017-07-15T21:03:05.695Z,98.20
2017-07-15T21:05:33.512Z,98.20
2017-07-15T21:08:01.213Z,98.20
2017-07-15T21:10:29.037Z,98.20
2017-07-15T21:12:56.515Z,98.20
2017-07-15T21:15:24.260Z,98.20
2017-07-15T21:17:52.870Z,98.20
2017-07-15T21:20:20.393Z,98.20
2017-07-15T21:22:47.892Z,98.20
2017-07-15T21:25:15.363Z,98.20
2017-07-15T21:27:43.229Z,98.20
2017-07-15T21:30:10.731Z,98.20
2017-07-15T21:32:38.496Z,98.20
2017-07-15T21:35:05.950Z,98.20
2017-07-15T21:37:33.720Z,98.20
2017-07-15T21:40:01.195Z,98.20
2017-07-15T21:42:28.659Z,98.20
2017-07-15T21:44:56.134Z,98.20
2017-07-15T21:47:23.982Z,98.20
2017-07-15T21:49:51.444Z,98.20
2017-07-15T21:52:18.966Z,98.20
2017-07-15T21:54:46.435Z,98.20
2017-07-15T21:57:13.894Z,98.20
2017-07-15T21:59:41.390Z,98.20
2017-07-15T22:02:09.993Z,98.20
2017-07-15T22:04:37.450Z,98.20
2017-07-15T22:07:04.954Z,98.20
2017-07-15T22:09:32.807Z,98.20
2017-07-15T22:12:00.423Z,98.20
2017-07-15T22:14:27.905Z,98.20
2017-07-15T22:16:55.754Z,98.20
2017-07-15T22:19:23.616Z,98.20
2017-07-15T22:21:51.366Z,98.20
2017-07-15T22:24:18.830Z,98.20
2017-07-15T22:26:46.295Z,98.20
2017-07-15T22:29:13.911Z,98.20
2017-07-15T22:31:41.381Z,98.20
2017-07-15T22:34:08.850Z,98.20
2017-07-15T22:36:36.975Z,98.20
2017-07-15T22:39:04.439Z,98.20
2017-07-15T22:41:32.305Z,98.20
2017-07-15T22:44:00.463Z,98.20
2017-07-15T22:46:27.918Z,98.20
2017-07-15T22:48:55.374Z,98.20
2017-07-15T22:51:22.942Z,98.20
2017-07-15T22:53:51.017Z,98.20
2017-07-15T22:56:19.103Z,98.20
2017-07-15T22:58:46.972Z,98.20
2017-07-15T23:01:14.427Z,98.20
2017-07-15T23:03:42.216Z,98.20
2017-07-15T23:06:09.705Z,98.20
2017-07-15T23:08:37.162Z,98.20
2017-07-15T23:11:04.654Z,98.20
2017-07-15T23:13:32.141Z,98.20
2017-07-15T23:15:59.599Z,98.20
2017-07-15T23:18:27.064Z,98.20
2017-07-15T23:20:54.543Z,98.20
2017-07-15T23:23:21.997Z,98.20
2017-07-15T23:25:49.463Z,98.20
2017-07-15T23:28:17.331Z,98.20
2017-07-15T23:30:44.794Z,98.20
2017-07-15T23:33:12.647Z,98.20
2017-07-15T23:35:40.807Z,98.20
2017-07-15T23:38:08.266Z,98.20
2017-07-15T23:40:35.722Z,98.20
2017-07-15T23:43:03.211Z,98.20
2017-07-15T23:45:30.676Z,98.20
2017-07-15T23:47:58.140Z,98.20
2017-07-15T23:50:25.615Z,98.20
2017-07-15T23:52:53.074Z,98.20
2017-07-15T23:55:20.538Z,98.20
2017-07-15T23:57:49.498Z,98.20
